createdAt,value
2019-02-15T00:01:43.774Z,99.90
2019-02-15T00:04:33.190Z,99.90
2019-02-15T00:07:16.578Z,99.90
2019-02-15T00:09:58.270Z,99.90
2019-02-15T00:12:39.970Z,99.90
2019-02-15T00:15:21.786Z,99.90
2019-02-15T00:18:22.607Z,99.90
2019-02-15T00:24:06.341Z,99.90
2019-02-15T00:26:48.292Z,99.90
2019-02-15T00:29:30.781Z,99.90
2019-02-15T00:32:13.296Z,99.90
2019-02-15T00:34:55.226Z,99.90
2019-02-15T00:37:37.150Z,99.90
2019-02-15T00:40:19.125Z,99.90
2019-02-15T00:43:01.061Z,99.90
2019-02-15T00:48:33.800Z,99.90
2019-02-15T00:51:43.547Z,99.90
2019-02-15T00:54:47.946Z,99.90
2019-02-15T00:57:37.152Z,99.90
2019-02-15T01:00:46.982Z,99.90
2019-02-15T01:03:38.196Z,99.90
2019-02-15T01:06:40.252Z,99.90
2019-02-15T01:09:36.185Z,99.90
2019-02-15T01:12:23.098Z,99.90
2019-02-15T01:15:04.786Z,99.90
2019-02-15T01:17:46.694Z,99.90
2019-02-15T01:20:28.727Z,99.90
2019-02-15T01:23:10.651Z,99.90
2019-02-15T01:32:22.618Z,99.90
2019-02-15T01:35:23.639Z,99.90
2019-02-15T01:38:30.565Z,99.90
2019-02-15T01:41:22.794Z,99.90
2019-02-15T01:44:32.571Z,99.90
2019-02-15T01:47:35.075Z,99.90
2019-02-15T01:50:18.182Z,99.90
2019-02-15T01:53:00.059Z,99.90
2019-02-15T01:55:42.192Z,99.90
2019-02-15T01:58:24.399Z,99.90
2019-02-15T02:01:06.465Z,99.90
2019-02-15T02:03:48.491Z,99.90
2019-02-15T02:06:30.775Z,99.90
2019-02-15T02:09:12.974Z,99.90
2019-02-15T02:11:55.044Z,99.90
2019-02-15T02:14:37.371Z,99.90
2019-02-15T02:17:19.160Z,99.90
2019-02-15T02:20:01.391Z,99.90
2019-02-15T02:22:43.438Z,99.90
2019-02-15T02:25:26.026Z,99.90
2019-02-15T02:28:08.378Z,99.90
2019-02-15T02:30:38.726Z,99.90
2019-02-15T02:33:10.537Z,99.90
2019-02-15T02:35:53.559Z,99.90
2019-02-15T02:38:35.739Z,99.90
2019-02-15T02:41:17.619Z,99.90
2019-02-15T02:44:00.181Z,99.90
2019-02-15T02:46:42.174Z,99.90
2019-02-15T02:49:24.505Z,99.90
2019-02-15T02:52:06.308Z,99.90
2019-02-15T02:54:46.798Z,99.90
2019-02-15T02:57:36.230Z,99.90
2019-02-15T03:00:20.196Z,99.90
2019-02-15T03:03:02.332Z,99.90
2019-02-15T03:05:44.215Z,99.90
2019-02-15T03:08:26.288Z,99.90
2019-02-15T03:11:08.239Z,99.90
2019-02-15T03:13:50.678Z,99.90
2019-02-15T03:16:32.475Z,99.90
2019-02-15T03:19:14.345Z,99.90
2019-02-15T03:21:56.618Z,99.90
2019-02-15T03:24:38.907Z,99.90
2019-02-15T03:27:21.079Z,99.90
2019-02-15T03:30:02.854Z,99.90
2019-02-15T03:32:44.760Z,99.90
2019-02-15T03:35:26.963Z,99.90
2019-02-15T03:41:30.995Z,99.90
2019-02-15T03:44:21.773Z,99.90
2019-02-15T03:46:58.394Z,99.90
2019-02-15T03:49:38.974Z,99.90
2019-02-15T03:52:28.398Z,99.90
2019-02-15T03:55:12.333Z,99.90
2019-02-15T03:57:54.199Z,99.90
2019-02-15T04:00:36.755Z,99.90
2019-02-15T04:03:19.034Z,99.90
2019-02-15T04:06:00.804Z,99.90
2019-02-15T04:08:42.611Z,99.90
2019-02-15T04:11:24.773Z,99.90
2019-02-15T04:14:07.112Z,99.90
2019-02-15T04:16:48.970Z,99.90
2019-02-15T04:19:31.182Z,99.90
2019-02-15T04:22:13.449Z,99.90
2019-02-15T04:24:55.545Z,99.90
2019-02-15T04:27:37.499Z,99.90
2019-02-15T04:30:19.543Z,99.90
2019-02-15T04:33:01.150Z,99.90
2019-02-15T04:35:43.143Z,99.90
2019-02-15T04:38:25.325Z,99.90
2019-02-15T04:41:07.854Z,99.90
2019-02-15T04:43:49.685Z,99.90
2019-02-15T04:46:32.070Z,99.90
2019-02-15T04:49:13.831Z,99.90
2019-02-15T04:57:53.204Z,99.90
2019-02-15T05:00:47.523Z,99.90
2019-02-15T05:03:30.926Z,99.90
2019-02-15T05:06:11.402Z,99.90
2019-02-15T05:09:00.746Z,99.90
2019-02-15T05:11:44.439Z,99.90
2019-02-15T05:14:26.690Z,99.90
2019-02-15T05:17:07.163Z,99.90
2019-02-15T05:19:56.574Z,99.90
2019-02-15T05:22:40.391Z,99.90
2019-02-15T05:25:22.287Z,99.90
2019-02-15T05:28:04.521Z,99.90
2019-02-15T05:30:46.190Z,99.90
2019-02-15T05:33:28.014Z,99.90
2019-02-15T05:36:09.711Z,99.90
2019-02-15T05:38:51.844Z,99.90
2019-02-15T05:41:34.198Z,99.90
2019-02-15T05:44:16.440Z,99.90
2019-02-15T05:46:58.082Z,99.90
2019-02-15T05:49:40.243Z,99.90
2019-02-15T05:52:22.826Z,99.90
2019-02-15T05:55:04.860Z,99.90
2019-02-15T05:57:46.959Z,99.90
2019-02-15T06:00:36.678Z,99.90
2019-02-15T06:03:13.776Z,99.90
2019-02-15T06:05:55.490Z,99.90
2019-02-15T06:08:37.504Z,99.90
2019-02-15T06:11:19.306Z,99.90
2019-02-15T06:14:01.491Z,99.90
2019-02-15T06:16:43.229Z,99.90
2019-02-15T06:19:25.156Z,99.90
2019-02-15T06:22:07.298Z,99.90
2019-02-15T06:24:49.058Z,99.90
2019-02-15T06:27:31.023Z,99.90
2019-02-15T06:30:13.153Z,99.90
2019-02-15T06:32:54.934Z,99.90
2019-02-15T06:35:36.952Z,99.90
2019-02-15T06:38:19.095Z,99.90
2019-02-15T06:41:00.995Z,99.90
2019-02-15T06:43:42.882Z,99.90
2019-02-15T06:46:28.060Z,99.90
2019-02-15T06:49:10.426Z,99.90
2019-02-15T06:51:52.205Z,99.90
2019-02-15T06:54:34.911Z,99.90
2019-02-15T07:00:17.567Z,99.90
2019-02-15T07:03:01.934Z,99.90
2019-02-15T07:05:33.858Z,99.90
2019-02-15T07:08:17.268Z,99.90
2019-02-15T07:10:59.310Z,99.90
2019-02-15T07:13:41.074Z,99.90
2019-02-15T07:16:23.234Z,99.90
2019-02-15T07:19:05.480Z,99.90
2019-02-15T07:21:48.044Z,99.90
2019-02-15T07:24:30.024Z,99.90
2019-02-15T07:27:12.146Z,99.90
2019-02-15T07:29:54.142Z,99.90
2019-02-15T07:32:36.595Z,99.90
2019-02-15T07:35:18.307Z,99.90
2019-02-15T07:38:00.738Z,99.90
2019-02-15T07:40:42.889Z,99.90
2019-02-15T07:43:24.768Z,99.90
2019-02-15T07:46:06.740Z,99.90
2019-02-15T07:48:48.565Z,99.90
2019-02-15T07:51:30.730Z,99.90
2019-02-15T07:54:12.547Z,98.70
2019-02-15T07:56:54.361Z,98.40
2019-02-15T07:59:35.970Z,97.10
2019-02-15T08:02:17.648Z,98.00
2019-02-15T08:04:59.381Z,99.40
2019-02-15T08:07:41.313Z,98.50
2019-02-15T08:10:23.529Z,97.40
2019-02-15T08:13:05.285Z,95.20
2019-02-15T08:15:52.043Z,95.00
2019-02-15T08:18:31.230Z,93.00
2019-02-15T08:21:13.329Z,91.40
2019-02-15T08:23:55.686Z,90.10
2019-02-15T08:26:37.994Z,84.90
2019-02-15T08:29:19.969Z,86.00
2019-02-15T08:32:02.186Z,88.70
2019-02-15T08:34:42.669Z,86.60
2019-02-15T08:37:32.138Z,83.90
2019-02-15T08:40:15.900Z,84.10
2019-02-15T08:42:57.912Z,87.30
2019-02-15T08:45:39.578Z,86.50
2019-02-15T08:48:22.138Z,85.70
2019-02-15T08:51:03.946Z,85.70
2019-02-15T08:53:46.003Z,85.00
2019-02-15T08:56:28.056Z,81.00
2019-02-15T08:59:09.874Z,80.50
2019-02-15T09:02:11.266Z,79.80
2019-02-15T09:04:51.803Z,83.40
2019-02-15T09:07:41.207Z,80.60
2019-02-15T09:10:24.647Z,78.60
2019-02-15T09:13:06.788Z,76.90
2019-02-15T09:15:49.238Z,81.70
2019-02-15T09:18:31.058Z,75.10
2019-02-15T09:21:12.966Z,75.60
2019-02-15T09:23:55.829Z,75.80
2019-02-15T09:26:37.481Z,76.10
2019-02-15T09:29:19.986Z,76.60
2019-02-15T09:32:01.718Z,75.00
2019-02-15T09:34:43.430Z,74.60
2019-02-15T09:37:25.406Z,76.30
2019-02-15T09:40:07.756Z,76.00
2019-02-15T09:42:49.832Z,76.90
2019-02-15T09:45:33.021Z,75.60
2019-02-15T09:48:15.543Z,75.90
2019-02-15T09:50:57.852Z,75.20
2019-02-15T09:53:39.587Z,76.20
2019-02-15T09:56:21.967Z,75.10
2019-02-15T09:59:04.263Z,75.50
2019-02-15T10:01:46.398Z,74.40
2019-02-15T10:04:28.366Z,77.00
2019-02-15T10:07:10.318Z,75.70
2019-02-15T10:09:52.581Z,74.20
2019-02-15T10:12:34.182Z,71.80
2019-02-15T10:15:16.283Z,70.40
2019-02-15T10:17:58.435Z,70.70
2019-02-15T10:20:40.753Z,70.70
2019-02-15T10:23:22.651Z,71.70
2019-02-15T10:26:04.495Z,69.40
2019-02-15T10:28:46.218Z,70.40
2019-02-15T10:31:27.881Z,67.90
2019-02-15T10:34:09.535Z,68.50
2019-02-15T10:36:51.669Z,71.10
2019-02-15T10:39:33.317Z,69.20
2019-02-15T10:42:15.222Z,65.50
2019-02-15T10:44:57.475Z,63.60
2019-02-15T10:47:39.407Z,65.90
2019-02-15T10:50:21.327Z,65.20
2019-02-15T10:53:03.466Z,66.00
2019-02-15T10:55:45.840Z,63.40
2019-02-15T10:58:27.723Z,64.00
2019-02-15T11:01:09.975Z,63.80
2019-02-15T11:03:52.510Z,61.40
2019-02-15T11:06:34.775Z,61.70
2019-02-15T11:09:16.842Z,62.40
2019-02-15T11:11:58.910Z,62.30
2019-02-15T11:14:40.736Z,65.30
2019-02-15T11:17:22.570Z,62.50
2019-02-15T11:20:04.275Z,61.60
2019-02-15T11:22:46.271Z,62.90
2019-02-15T11:25:28.280Z,64.20
2019-02-15T11:28:09.910Z,65.30
2019-02-15T11:30:51.543Z,65.00
2019-02-15T11:33:33.654Z,63.90
2019-02-15T11:36:15.274Z,63.70
2019-02-15T11:38:57.630Z,63.40
2019-02-15T11:41:39.389Z,61.90
2019-02-15T11:44:21.074Z,62.30
2019-02-15T11:47:02.924Z,63.10
2019-02-15T11:49:44.829Z,64.10
2019-02-15T11:52:26.602Z,63.90
2019-02-15T11:55:08.262Z,63.80
2019-02-15T11:57:50.547Z,63.80
2019-02-15T12:00:33.947Z,64.30
2019-02-15T12:03:16.152Z,65.80
2019-02-15T12:05:58.109Z,63.40
2019-02-15T12:08:40.246Z,64.10
2019-02-15T12:11:22.254Z,64.40
2019-02-15T12:14:04.074Z,65.40
2019-02-15T12:16:46.214Z,64.50
2019-02-15T12:19:28.202Z,65.50
2019-02-15T12:22:09.818Z,65.40
2019-02-15T12:24:51.611Z,66.00
2019-02-15T12:27:33.746Z,66.60
2019-02-15T12:30:15.719Z,66.00
2019-02-15T12:32:57.785Z,65.40
2019-02-15T12:35:39.706Z,65.10
2019-02-15T12:38:21.658Z,65.40
2019-02-15T12:41:03.766Z,66.10
2019-02-15T12:43:45.646Z,67.50
2019-02-15T12:46:27.879Z,64.40
2019-02-15T12:49:09.711Z,64.70
2019-02-15T12:51:51.867Z,64.60
2019-02-15T12:54:34.222Z,65.00
2019-02-15T12:57:15.866Z,65.10
2019-02-15T12:59:58.190Z,63.40
2019-02-15T13:02:40.284Z,62.80
2019-02-15T13:05:22.645Z,63.30
2019-02-15T13:08:04.471Z,63.20
2019-02-15T13:10:46.506Z,63.80
2019-02-15T13:13:28.597Z,64.20
2019-02-15T13:16:10.347Z,62.70
2019-02-15T13:18:52.438Z,62.80
2019-02-15T13:21:34.298Z,62.40
2019-02-15T13:24:16.169Z,62.40
2019-02-15T13:26:57.990Z,63.20
2019-02-15T13:29:40.245Z,64.20
2019-02-15T13:32:22.330Z,66.10
2019-02-15T13:35:04.358Z,64.00
2019-02-15T13:37:46.411Z,64.00
2019-02-15T13:40:27.019Z,63.90
2019-02-15T13:43:16.422Z,63.70
2019-02-15T13:45:58.446Z,66.10
2019-02-15T13:48:40.978Z,64.50
2019-02-15T13:51:23.022Z,63.80
2019-02-15T13:54:05.102Z,64.00
2019-02-15T13:56:47.027Z,64.10
2019-02-15T13:59:29.262Z,63.90
2019-02-15T14:02:11.434Z,63.40
2019-02-15T14:04:54.068Z,66.00
2019-02-15T14:07:36.339Z,66.00
2019-02-15T14:10:18.353Z,65.80
2019-02-15T14:13:00.470Z,64.30
2019-02-15T14:15:43.010Z,63.50
2019-02-15T14:18:24.830Z,63.40
2019-02-15T14:21:06.945Z,64.20
2019-02-15T14:23:48.726Z,64.50
2019-02-15T14:26:30.875Z,63.80
2019-02-15T14:29:11.298Z,64.60
2019-02-15T14:32:00.654Z,66.60
2019-02-15T14:34:44.234Z,67.50
2019-02-15T14:37:26.440Z,67.10
2019-02-15T14:40:08.754Z,66.80
2019-02-15T14:42:50.505Z,68.00
2019-02-15T14:45:32.770Z,68.50
2019-02-15T14:48:14.606Z,68.90
2019-02-15T14:50:56.727Z,69.60
2019-02-15T14:53:38.746Z,70.20
2019-02-15T14:56:20.961Z,71.40
2019-02-15T14:59:02.849Z,71.50
2019-02-15T15:01:44.478Z,71.50
2019-02-15T15:04:26.766Z,71.60
2019-02-15T15:07:08.455Z,70.90
2019-02-15T15:09:50.324Z,71.10
2019-02-15T15:12:31.974Z,71.40
2019-02-15T15:15:13.886Z,72.00
2019-02-15T15:18:05.938Z,72.50
2019-02-15T15:20:39.607Z,72.30
2019-02-15T15:23:21.568Z,72.20
2019-02-15T15:26:11.604Z,73.00
2019-02-15T15:28:47.054Z,73.60
2019-02-15T15:31:29.182Z,75.00
2019-02-15T15:34:11.257Z,75.90
2019-02-15T15:36:53.146Z,76.80
2019-02-15T15:39:34.947Z,77.60
2019-02-15T15:42:16.931Z,77.30
2019-02-15T15:44:58.946Z,77.80
2019-02-15T15:47:40.626Z,78.50
2019-02-15T15:50:22.470Z,79.30
2019-02-15T15:53:04.777Z,80.30
2019-02-15T15:55:47.251Z,80.70
2019-02-15T15:58:29.350Z,81.60
2019-02-15T16:01:11.204Z,82.80
2019-02-15T16:03:53.566Z,84.40
2019-02-15T16:06:35.722Z,86.90
2019-02-15T16:09:17.446Z,89.40
2019-02-15T16:11:59.487Z,90.60
2019-02-15T16:14:41.224Z,91.70
2019-02-15T16:17:27.311Z,92.70
2019-02-15T16:20:08.987Z,99.30
2019-02-15T16:22:50.896Z,99.90
2019-02-15T16:25:33.360Z,99.90
2019-02-15T16:28:15.469Z,99.80
2019-02-15T16:30:57.330Z,99.90
2019-02-15T16:33:39.882Z,99.90
2019-02-15T16:36:22.778Z,99.90
2019-02-15T16:39:05.834Z,99.90
2019-02-15T16:41:47.651Z,99.90
2019-02-15T16:44:30.042Z,99.90
2019-02-15T16:47:12.111Z,99.90
2019-02-15T16:49:53.826Z,99.90
2019-02-15T16:52:35.994Z,99.90
2019-02-15T16:55:21.298Z,99.90
2019-02-15T16:58:02.061Z,99.90
2019-02-15T17:00:51.430Z,99.90
2019-02-15T17:03:35.178Z,99.90
2019-02-15T17:06:17.278Z,99.90
2019-02-15T17:08:59.210Z,99.90
2019-02-15T17:11:41.443Z,99.90
2019-02-15T17:14:23.265Z,99.90
2019-02-15T17:17:05.462Z,99.90
2019-02-15T17:19:47.781Z,99.90
2019-02-15T17:22:30.044Z,99.90
2019-02-15T17:25:11.992Z,99.90
2019-02-15T17:27:54.145Z,99.90
2019-02-15T17:30:36.414Z,99.90
2019-02-15T17:33:18.267Z,99.90
2019-02-15T17:36:00.298Z,99.90
2019-02-15T17:38:42.638Z,99.90
2019-02-15T17:41:24.474Z,99.90
2019-02-15T17:44:06.762Z,99.90
2019-02-15T17:46:49.197Z,99.90
2019-02-15T17:49:31.278Z,99.90
2019-02-15T17:52:13.159Z,99.90
2019-02-15T17:54:55.150Z,99.90
2019-02-15T17:57:37.290Z,99.90
2019-02-15T18:00:19.756Z,99.90
2019-02-15T18:03:09.138Z,99.90
2019-02-15T18:05:52.766Z,99.90
2019-02-15T18:08:34.905Z,99.90
2019-02-15T18:11:16.926Z,99.90
2019-02-15T18:13:58.994Z,99.90
2019-02-15T18:16:41.126Z,99.90
2019-02-15T18:19:23.418Z,99.90
2019-02-15T18:22:05.889Z,99.90
2019-02-15T18:24:48.346Z,99.90
2019-02-15T18:27:30.746Z,99.90
2019-02-15T18:30:12.727Z,99.90
2019-02-15T18:32:54.983Z,99.90
2019-02-15T18:35:36.838Z,99.90
2019-02-15T18:38:18.644Z,99.90
2019-02-15T18:41:00.313Z,99.90
2019-02-15T18:43:43.920Z,99.90
2019-02-15T18:46:26.671Z,99.90
2019-02-15T18:49:08.839Z,99.90
2019-02-15T18:51:51.094Z,99.90
2019-02-15T18:54:33.066Z,99.90
2019-02-15T18:57:14.965Z,99.90
2019-02-15T18:59:57.094Z,99.90
2019-02-15T19:02:38.907Z,99.90
2019-02-15T19:05:20.762Z,99.90
2019-02-15T19:08:02.807Z,99.90
2019-02-15T19:10:44.482Z,99.90
2019-02-15T19:13:26.398Z,99.90
2019-02-15T19:16:08.499Z,99.90
2019-02-15T19:18:50.275Z,99.90
2019-02-15T19:21:32.387Z,99.90
2019-02-15T19:24:14.552Z,99.90
2019-02-15T19:26:59.585Z,99.90
2019-02-15T19:29:41.806Z,99.90
2019-02-15T19:32:23.896Z,99.90
2019-02-15T19:35:05.814Z,99.90
2019-02-15T19:37:47.966Z,99.90
2019-02-15T19:40:30.115Z,99.90
2019-02-15T19:43:12.053Z,99.90
2019-02-15T19:45:54.362Z,99.90
2019-02-15T19:48:36.716Z,99.90
2019-02-15T19:51:18.508Z,99.90
2019-02-15T19:54:00.839Z,99.90
2019-02-15T19:56:42.655Z,99.90
2019-02-15T19:59:24.766Z,99.90
2019-02-15T20:02:07.263Z,99.90
2019-02-15T20:04:49.835Z,99.90
2019-02-15T20:07:31.667Z,99.90
2019-02-15T20:10:13.890Z,99.90
2019-02-15T20:12:56.002Z,99.90
2019-02-15T20:15:37.869Z,99.90
2019-02-15T20:18:19.571Z,99.90
2019-02-15T20:21:01.499Z,99.90
2019-02-15T20:23:43.606Z,99.90
2019-02-15T20:26:25.842Z,99.90
2019-02-15T20:29:08.606Z,99.90
2019-02-15T20:31:51.101Z,99.90
2019-02-15T20:34:33.510Z,99.90
2019-02-15T20:37:15.499Z,99.90
2019-02-15T20:39:59.693Z,99.90
2019-02-15T20:42:41.330Z,99.90
2019-02-15T20:45:23.346Z,99.90
2019-02-15T20:48:11.369Z,99.90
2019-02-15T20:50:49.430Z,99.90
2019-02-15T20:53:31.608Z,99.90
2019-02-15T20:56:13.515Z,99.90
2019-02-15T20:58:56.103Z,99.90
2019-02-15T21:01:37.965Z,99.90
2019-02-15T21:04:19.800Z,99.90
2019-02-15T21:07:03.205Z,99.90
2019-02-15T21:09:45.610Z,99.90
2019-02-15T21:12:27.455Z,99.90
2019-02-15T21:15:09.678Z,99.90
2019-02-15T21:17:51.870Z,99.90
2019-02-15T21:20:34.462Z,99.90
2019-02-15T21:23:16.193Z,99.90
2019-02-15T21:25:58.415Z,99.90
2019-02-15T21:28:40.971Z,99.90
2019-02-15T21:31:23.163Z,99.90
2019-02-15T21:34:05.318Z,99.90
2019-02-15T21:36:47.596Z,99.90
2019-02-15T21:39:29.634Z,99.90
2019-02-15T21:42:12.223Z,99.90
2019-02-15T21:44:56.898Z,99.90
2019-02-15T21:47:39.026Z,99.90
2019-02-15T21:50:20.831Z,99.90
2019-02-15T21:53:02.677Z,99.90
2019-02-15T21:55:45.131Z,99.90
2019-02-15T21:58:26.948Z,99.90
2019-02-15T22:01:08.787Z,99.90
2019-02-15T22:03:50.910Z,99.90
2019-02-15T22:06:33.371Z,99.90
2019-02-15T22:09:15.364Z,99.90
2019-02-15T22:11:57.680Z,99.90
2019-02-15T22:14:39.459Z,99.90
2019-02-15T22:17:21.691Z,99.90
2019-02-15T22:20:03.638Z,99.90
2019-02-15T22:22:45.445Z,99.90
2019-02-15T22:25:27.378Z,99.90
2019-02-15T22:27:57.751Z,99.90
2019-02-15T22:30:48.641Z,99.90
2019-02-15T22:33:32.347Z,99.90
2019-02-15T22:36:14.419Z,99.90
2019-02-15T22:38:56.183Z,99.90
2019-02-15T22:41:37.908Z,99.90
2019-02-15T22:44:19.703Z,99.90
2019-02-15T22:47:01.857Z,99.90
2019-02-15T22:49:44.374Z,99.90
2019-02-15T22:52:26.207Z,99.90
2019-02-15T22:55:16.584Z,99.90
2019-02-15T22:58:07.467Z,99.90
2019-02-15T23:00:53.203Z,99.90
2019-02-15T23:03:35.114Z,99.90
2019-02-15T23:06:16.904Z,99.90
2019-02-15T23:08:59.630Z,99.90
2019-02-15T23:11:40.034Z,99.90
2019-02-15T23:14:29.405Z,99.90
2019-02-15T23:17:13.267Z,99.90
2019-02-15T23:19:55.431Z,99.90
2019-02-15T23:22:37.123Z,99.90
2019-02-15T23:25:19.359Z,99.90
2019-02-15T23:28:01.505Z,99.90
2019-02-15T23:30:42.307Z,99.90
2019-02-15T23:33:31.726Z,99.90
2019-02-15T23:36:15.173Z,99.90
2019-02-15T23:38:57.137Z,99.90
2019-02-15T23:41:39.441Z,99.90
2019-02-15T23:44:21.261Z,99.90
2019-02-15T23:47:02.990Z,99.90
2019-02-15T23:49:45.042Z,99.90
2019-02-15T23:52:26.822Z,99.90
2019-02-15T23:54:57.844Z,99.90
2019-02-15T23:57:48.730Z,99.90
